Reykjavik, Iceland
Current Conditions -  °F | °C
As of 9:00 AM on Friday 31 Oct 2014 (Local Time) from BIRK Reporting Station
Clear Clear  
Wind Chill:   Ceiling: Unl
Heat Index:   Visibility: 6mi
Dew Point:   Wind: 32mph
Humidity: 62%   Direction: 80°E
Pressure: 29.18"   Gusts: 44mph
Location:  64.14°N, 21.92°W
Report Text: BIRK 310900Z 08028G38KT CAVOK 08/01 Q0988
Loading
Personal Weather Stations






























Interactive Weather Map
Tropical Storm Tracking
New forecast layout! Learn more

10-Day Weather Forecast

Advertisements
Track Severe Weather on mobile